Time;durP1;ratioP1;P1;durP2;ratioP2;P2;SDS_P1;SDS_P2;PMS_P1;PMS_P2;Temp;Humidity;BMP_temperature;BMP_pressure;BME280_temperature;BME280_humidity;BME280_pressure;Samples;Min_cycle;Max_cycle;Signal;HPM_P1;HPM_P2
2023/08/01 00:03:52;;;;;;;6.90;3.90;;;;;;;18.22;72.37;99710.69;15547260;28;20042;-58
2023/08/01 00:11:26;;;;;;;;;;;;;;;17.68;74.82;99701.63;15530049;28;20375;-57
2023/08/01 00:18:59;;;;;;;5.35;2.97;;;;;;;17.60;76.00;99699.50;15547036;28;20410;-58
2023/08/01 00:26:33;;;;;;;3.63;2.83;;;;;;;17.50;76.73;99670.53;15549995;28;20577;-56
2023/08/01 00:34:06;;;;;;;4.15;2.83;;;;;;;17.31;77.64;99677.72;15540501;28;20164;-57
2023/08/01 00:41:41;;;;;;;5.30;3.08;;;;;;;17.60;76.58;99643.31;15556296;28;20587;-57
2023/08/01 00:49:15;;;;;;;7.88;3.55;;;;;;;17.38;77.67;99642.94;15538086;28;20049;-56
2023/08/01 00:56:50;;;;;;;6.53;3.60;;;;;;;17.23;78.63;99627.59;15538130;28;20057;-57
2023/08/01 01:04:24;;;;;;;8.18;4.22;;;;;;;17.12;79.14;99617.91;15537006;28;20049;-56
2023/08/01 01:11:59;;;;;;;6.53;4.28;;;;;;;17.72;76.93;99612.28;15538656;28;20042;-58
2023/08/01 01:19:33;;;;;;;7.35;4.25;;;;;;;17.59;77.93;99602.91;15519364;28;20200;-57
2023/08/01 01:27:08;;;;;;;7.80;4.20;;;;;;;17.38;77.59;99560.75;15537779;28;20671;-54
2023/08/01 01:34:41;;;;;;;8.80;4.53;;;;;;;17.18;79.49;99557.13;15551827;28;20488;-56
2023/08/01 01:42:15;;;;;;;8.48;4.65;;;;;;;17.11;80.09;99553.91;15534653;28;20041;-55
2023/08/01 01:49:50;;;;;;;8.73;4.90;;;;;;;17.10;80.31;99549.56;15552788;28;20513;-57
2023/08/01 01:57:24;;;;;;;8.70;4.78;;;;;;;17.01;80.21;99521.44;15519149;28;20514;-52
2023/08/01 02:04:57;;;;;;;8.65;5.10;;;;;;;16.76;81.15;99508.88;15505438;28;20042;-56
2023/08/01 02:12:32;;;;;;;10.55;5.38;;;;;;;17.05;81.04;99492.69;15493184;28;20049;-55
2023/08/01 02:20:06;;;;;;;9.20;5.70;;;;;;;16.87;80.99;99474.38;15535423;28;20042;-52
2023/08/01 02:27:40;;;;;;;11.98;5.82;;;;;;;16.82;81.49;99467.91;15549503;28;20118;-55
2023/08/01 02:35:13;;;;;;;9.57;5.18;;;;;;;17.36;79.60;99468.03;15529114;28;20116;-54
2023/08/01 02:42:47;;;;;;;;;;;;;;;17.05;80.36;99452.81;15533044;28;20447;-58
2023/08/01 02:50:20;;;;;;;7.50;4.75;;;;;;;16.96;81.18;99443.69;15531516;28;19967;-57
2023/08/01 02:57:55;;;;;;;11.27;5.45;;;;;;;17.16;79.66;99436.47;15530005;28;20659;-58
2023/08/01 03:05:37;;;;;;;8.45;5.15;;;;;;;16.92;80.93;99425.56;15515947;28;20049;-60
2023/08/01 03:13:12;;;;;;;7.22;4.57;;;;;;;17.12;79.38;99411.03;15515288;28;20052;-57
2023/08/01 03:20:46;;;;;;;7.18;4.47;;;;;;;17.15;79.43;99405.00;15525284;28;20096;-54
2023/08/01 03:28:20;;;;;;;7.57;4.80;;;;;;;17.10;79.36;99403.16;15547768;28;20141;-58
2023/08/01 03:35:53;;;;;;;6.35;4.47;;;;;;;17.11;78.95;99385.78;15546249;28;20030;-59
2023/08/01 03:43:27;;;;;;;7.72;4.15;;;;;;;16.91;79.74;99380.59;15528646;28;20532;-57
2023/08/01 03:51:00;;;;;;;9.27;4.15;;;;;;;17.04;79.36;99379.91;15529757;28;20065;-58
2023/08/01 03:58:34;;;;;;;5.43;3.97;;;;;;;16.83;79.50;99382.81;15529793;28;20070;-59
2023/08/01 04:06:08;;;;;;;7.05;3.80;;;;;;;17.20;78.91;99375.94;15543267;28;20548;-57
2023/08/01 04:13:43;;;;;;;7.45;3.50;;;;;;;17.32;78.30;99370.94;15542246;28;20486;-55
2023/08/01 04:21:16;;;;;;;6.80;3.53;;;;;;;17.28;78.50;99363.66;15559474;28;20045;-58
2023/08/01 04:28:51;;;;;;;6.60;3.75;;;;;;;17.46;77.53;99365.63;15558562;28;20067;-57
2023/08/01 04:36:24;;;;;;;6.50;3.35;;;;;;;17.41;78.26;99345.91;15557262;28;20080;-55
2023/08/01 04:43:58;;;;;;;;;;;;;;;17.27;78.46;99353.91;15540714;28;20042;-59
2023/08/01 04:51:51;;;;;;;6.22;3.72;;;;;;;17.22;79.11;99324.97;15522778;28;20338;-55
2023/08/01 04:59:25;;;;;;;6.53;3.88;;;;;;;17.44;78.55;99321.72;15523958;28;20475;-57
2023/08/01 05:06:58;;;;;;;6.60;3.78;;;;;;;17.39;79.26;99299.25;15555984;28;20085;-55
2023/08/01 05:14:32;;;;;;;;;;;;;;;17.65;78.20;99299.75;15556641;28;20136;-57
2023/08/01 05:22:06;;;;;;;6.05;3.95;;;;;;;17.44;78.55;99289.19;15553756;28;19960;-57
2023/08/01 05:29:42;;;;;;;7.50;3.83;;;;;;;17.64;78.45;99271.81;15555461;28;20120;-51
2023/08/01 05:37:15;;;;;;;5.43;3.60;;;;;;;17.63;77.70;99281.06;15530344;28;20521;-52
2023/08/01 05:44:49;;;;;;;6.30;3.38;;;;;;;17.75;77.35;99286.06;15554397;28;20509;-52
2023/08/01 05:52:24;;;;;;;5.55;3.42;;;;;;;17.54;77.91;99275.47;15537272;28;20045;-55
2023/08/01 06:00:00;;;;;;;4.68;3.40;;;;;;;17.85;77.08;99277.75;15553204;28;20050;-55
2023/08/01 06:07:33;;;;;;;6.03;3.22;;;;;;;17.78;77.74;99272.72;15553716;28;20053;-52
2023/08/01 06:15:09;;;;;;;6.93;3.00;;;;;;;17.60;77.93;99266.16;15535220;28;20118;-53
2023/08/01 06:22:43;;;;;;;7.05;3.55;;;;;;;17.76;78.36;99269.47;15551915;28;20451;-53
2023/08/01 06:30:17;;;;;;;7.45;3.08;;;;;;;17.94;77.71;99265.13;15551892;28;20057;-52
2023/08/01 06:37:50;;;;;;;5.50;3.35;;;;;;;17.55;78.32;99263.50;15552598;28;20495;-54
2023/08/01 06:45:41;;;;;;;5.63;3.10;;;;;;;17.77;77.40;99264.88;15537125;28;20061;-49
2023/08/01 06:53:14;;;;;;;6.38;3.22;;;;;;;17.72;78.33;99245.91;15532584;28;20137;-54
2023/08/01 07:00:49;;;;;;;5.95;3.33;;;;;;;17.89;78.14;99242.69;15532266;28;20042;-52
2023/08/01 07:08:22;;;;;;;6.25;3.25;;;;;;;17.85;77.72;99251.44;15549945;28;20073;-51
2023/08/01 07:15:57;;;;;;;3.63;2.60;;;;;;;18.35;75.82;99250.91;15549842;28;20459;-52
2023/08/01 07:23:30;;;;;;;3.60;2.90;;;;;;;18.35;75.67;99229.19;15546783;28;20057;-53
2023/08/01 07:31:07;;;;;;;5.38;2.65;;;;;;;18.28;76.13;99226.06;15550084;28;20042;-51
2023/08/01 07:38:44;;;;;;;4.93;2.80;;;;;;;18.58;75.02;99232.84;15548358;28;20072;-51
2023/08/01 07:46:18;;;;;;;;;;;;;;;18.97;73.74;99232.38;15549001;28;20041;-52
2023/08/01 07:53:53;;;;;;;4.72;2.50;;;;;;;19.07;73.87;99231.38;15530641;28;19921;-53
2023/08/01 08:01:27;;;;;;;3.00;2.03;;;;;;;19.29;73.80;99214.31;15547190;28;20469;-51
2023/08/01 08:09:00;;;;;;;2.95;2.10;;;;;;;19.97;70.97;99216.06;15513570;28;20104;-56
2023/08/01 08:16:35;;;;;;;2.05;1.50;;;;;;;20.40;69.84;99201.91;15529419;28;20172;-56
2023/08/01 08:24:09;;;;;;;2.63;1.38;;;;;;;20.36;68.51;99206.38;15548013;28;20141;-49
2023/08/01 08:31:48;;;;;;;2.40;1.42;;;;;;;20.29;68.05;99214.19;15546774;28;20711;-53
2023/08/01 08:39:20;;;;;;;3.75;1.42;;;;;;;20.10;68.66;99219.84;15546295;28;20042;-53
2023/08/01 08:46:56;;;;;;;3.40;1.10;;;;;;;20.42;67.04;99207.81;15549752;28;20042;-57
2023/08/01 08:54:31;;;;;;;1.92;0.90;;;;;;;20.83;65.90;99213.00;15557272;28;20045;-55
2023/08/01 09:02:05;;;;;;;1.00;0.80;;;;;;;20.71;63.41;99180.09;15557596;28;20056;-49
2023/08/01 09:09:39;;;;;;;1.95;0.80;;;;;;;20.99;62.47;99198.97;15557054;28;20526;-52
2023/08/01 09:17:16;;;;;;;1.30;0.80;;;;;;;21.02;63.42;99201.84;15539744;28;20049;-50
2023/08/01 09:24:53;;;;;;;1.08;0.60;;;;;;;20.56;62.88;99207.78;15538673;28;20064;-52
2023/08/01 09:32:33;;;;;;;;;;;;;;;20.26;64.66;99215.59;15554470;28;20132;-49
2023/08/01 09:40:09;;;;;;;0.90;0.57;;;;;;;20.31;63.89;99188.22;15555085;28;20023;-58
2023/08/01 09:47:43;;;;;;;1.20;0.60;;;;;;;20.61;64.13;99208.47;15554774;28;20070;-58
2023/08/01 09:55:16;;;;;;;1.13;0.47;;;;;;;20.26;64.41;99206.63;15554010;28;20503;-54
2023/08/01 10:02:53;;;;;;;3.25;0.70;;;;;;;20.02;66.01;99207.78;15552383;28;20049;-52
2023/08/01 10:10:27;;;;;;;1.88;0.60;;;;;;;20.12;66.01;99195.81;15554254;28;20410;-56
2023/08/01 10:18:01;;;;;;;0.65;0.55;;;;;;;20.20;65.55;99197.78;15553004;28;20042;-56
2023/08/01 10:25:38;;;;;;;0.90;0.40;;;;;;;20.16;65.39;99196.81;15534352;28;20050;-55
2023/08/01 10:33:13;;;;;;;1.70;0.30;;;;;;;19.97;66.12;99207.09;15551404;28;20077;-51
2023/08/01 10:40:46;;;;;;;0.50;0.38;;;;;;;18.90;71.19;99236.63;15534194;28;20038;-53
2023/08/01 10:48:21;;;;;;;0.70;0.45;;;;;;;18.06;76.34;99240.25;15533092;28;20116;-49
2023/08/01 10:55:55;;;;;;;0.90;0.50;;;;;;;18.53;75.35;99250.06;15532745;28;20042;-54
2023/08/01 11:03:36;;;;;;;2.17;0.63;;;;;;;18.64;73.88;99242.50;15550789;28;20049;-51
2023/08/01 11:11:13;;;;;;;1.40;0.55;;;;;;;18.35;76.34;99254.44;15532589;28;20042;-52
2023/08/01 11:18:50;;;;;;;2.47;1.60;;;;;;;18.16;72.42;99261.03;15549665;28;20112;-50
2023/08/01 11:26:23;;;;;;;3.08;1.63;;;;;;;18.06;74.32;99267.41;15531988;28;20057;-58
2023/08/01 11:33:59;;;;;;;6.65;2.90;;;;;;;17.59;76.17;99275.41;15549210;28;20136;-53
2023/08/01 11:41:32;;;;;;;5.65;3.05;;;;;;;18.14;77.93;99269.47;15548956;28;20045;-56
2023/08/01 11:49:07;;;;;;;6.03;3.50;;;;;;;18.61;75.62;99273.03;15531302;28;20120;-55
2023/08/01 11:56:41;;;;;;;5.65;2.88;;;;;;;19.25;74.20;99278.63;15551292;28;20046;-56
2023/08/01 12:04:26;;;;;;;6.63;3.08;;;;;;;20.30;74.32;99284.72;15547939;28;20054;-58
2023/08/01 12:12:00;;;;;;;6.85;3.13;;;;;;;19.67;70.44;99288.34;15547184;28;20069;-55
2023/08/01 12:19:34;;;;;;;5.40;2.60;;;;;;;19.39;70.28;99290.28;15513225;28;20066;-58
2023/08/01 12:27:08;;;;;;;4.10;2.72;;;;;;;19.75;69.61;99279.47;15539526;28;20038;-56
2023/08/01 12:34:42;;;;;;;5.53;3.20;;;;;;;19.92;67.05;99294.38;15525204;28;20049;-59
2023/08/01 12:42:15;;;;;;;5.40;2.88;;;;;;;20.41;65.83;99287.19;15541002;28;20046;-59
2023/08/01 12:49:50;;;;;;;5.07;2.83;;;;;;;19.77;66.72;99299.03;15558201;28;20464;-57
2023/08/01 12:57:23;;;;;;;5.20;3.13;;;;;;;19.76;65.27;99288.44;15525147;28;20150;-58
2023/08/01 13:04:58;;;;;;;4.93;2.78;;;;;;;21.13;62.18;99284.22;15553799;28;20460;-60
2023/08/01 13:12:31;;;;;;;6.97;2.75;;;;;;;22.23;59.30;99282.31;15556692;28;20053;-58
2023/08/01 13:20:07;;;;;;;5.63;2.58;;;;;;;22.73;57.61;99295.41;15555553;28;20045;-59
2023/08/01 13:27:41;;;;;;;6.63;2.60;;;;;;;22.36;57.72;99297.75;15543077;28;20375;-59
2023/08/01 13:35:17;;;;;;;6.38;2.70;;;;;;;21.86;58.41;99293.53;15549614;28;20058;-59
2023/08/01 13:42:50;;;;;;;3.03;2.45;;;;;;;22.19;57.53;99292.28;15528695;28;20057;-60
2023/08/01 13:50:26;;;;;;;5.25;2.53;;;;;;;21.64;55.47;99302.69;15545528;28;20045;-59
2023/08/01 13:57:59;;;;;;;4.00;2.40;;;;;;;21.50;55.57;99293.84;15550743;28;20046;-60
2023/08/01 14:05:33;;;;;;;6.07;2.53;;;;;;;23.07;55.38;99272.63;15548102;28;20479;-60
2023/08/01 14:13:07;;;;;;;4.43;2.35;;;;;;;23.21;52.31;99284.13;15552679;28;20145;-56
2023/08/01 14:20:41;;;;;;;3.97;2.03;;;;;;;22.26;54.00;99287.16;15532714;28;20050;-60
2023/08/01 14:28:14;;;;;;;4.93;2.28;;;;;;;22.09;54.14;99287.91;15544848;28;20057;-60
2023/08/01 14:35:49;;;;;;;5.70;1.95;;;;;;;21.89;52.78;99294.84;15531066;28;20060;-60
2023/08/01 14:43:22;;;;;;;3.92;2.03;;;;;;;22.33;52.27;99284.72;15520682;28;20056;-59
2023/08/01 14:50:57;;;;;;;5.38;2.38;;;;;;;22.61;52.40;99304.28;15548431;28;20141;-61
2023/08/01 14:58:29;;;;;;;5.20;2.20;;;;;;;22.26;52.46;99300.81;15522695;28;20056;-59
2023/08/01 15:06:09;;;;;;;2.92;1.70;;;;;;;22.60;51.26;99310.88;15542007;28;20135;-59
2023/08/01 15:13:42;;;;;;;5.25;1.92;;;;;;;22.10;53.09;99308.66;15538367;28;20068;-56
2023/08/01 15:21:17;;;;;;;3.83;1.70;;;;;;;20.34;59.13;99362.03;15538957;28;20048;-58
2023/08/01 15:28:51;;;;;;;10.25;2.40;;;;;;;19.13;68.21;99398.00;15522782;28;20486;-56
2023/08/01 15:36:27;;;;;;;6.63;1.88;;;;;;;18.44;72.12;99392.31;15539850;28;20042;-57
2023/08/01 15:44:02;;;;;;;3.70;1.80;;;;;;;18.33;73.78;99392.47;15504844;28;20042;-55
2023/08/01 15:51:36;;;;;;;3.67;2.20;;;;;;;18.76;74.39;99394.28;15539556;28;20050;-57
2023/08/01 15:59:09;;;;;;;5.38;2.28;;;;;;;18.54;74.76;99403.03;15538709;28;20061;-57
2023/08/01 16:06:44;;;;;;;4.88;2.60;;;;;;;18.98;74.11;99415.38;15521539;28;20769;-55
2023/08/01 16:14:17;;;;;;;4.07;2.20;;;;;;;19.69;71.27;99405.13;15537983;28;20160;-55
2023/08/01 16:21:51;;;;;;;3.97;1.88;;;;;;;19.24;72.79;99408.38;15538409;28;20502;-58
2023/08/01 16:29:24;;;;;;;5.32;1.83;;;;;;;19.49;69.48;99395.41;15520346;28;20054;-56
2023/08/01 16:36:58;;;;;;;3.88;2.13;;;;;;;19.56;70.41;99401.28;15538038;28;20069;-55
2023/08/01 16:44:31;;;;;;;3.80;2.08;;;;;;;20.11;68.49;99417.59;15537677;28;20126;-53
2023/08/01 16:52:07;;;;;;;4.15;1.70;;;;;;;19.42;70.07;99425.75;15536913;28;20141;-58
2023/08/01 16:59:40;;;;;;;4.22;1.65;;;;;;;19.36;68.17;99438.66;15518249;28;20087;-56
2023/08/01 17:07:15;;;;;;;3.55;1.52;;;;;;;19.01;67.30;99459.09;15538739;28;20145;-56
2023/08/01 17:14:48;;;;;;;2.83;1.73;;;;;;;19.22;70.02;99450.63;15547263;28;20160;-58
2023/08/01 17:22:26;;;;;;;4.90;1.67;;;;;;;19.04;68.91;99465.88;15547034;28;20054;-58
2023/08/01 17:29:59;;;;;;;13.70;2.20;;;;;;;18.78;70.22;99473.63;15545282;28;20478;-55
2023/08/01 17:37:33;;;;;;;3.38;1.88;;;;;;;18.44;71.19;99481.97;15546612;28;20104;-55
2023/08/01 17:45:07;;;;;;;3.33;2.17;;;;;;;19.08;70.73;99488.66;15545449;28;20045;-57
2023/08/01 17:52:41;;;;;;;4.55;1.92;;;;;;;19.24;70.87;99500.09;15544959;28;20057;-56
2023/08/01 18:00:14;;;;;;;3.58;1.70;;;;;;;17.96;68.55;99515.44;15544983;28;20258;-56
2023/08/01 18:07:49;;;;;;;3.88;1.60;;;;;;;17.97;68.14;99519.78;15533210;23;20050;-52
2023/08/01 18:15:22;;;;;;;3.15;1.45;;;;;;;17.80;68.58;99541.94;15471680;28;20491;-55
2023/08/01 18:22:56;;;;;;;;;;;;;;;18.01;67.89;99550.69;15487994;28;20444;-55
2023/08/01 18:30:29;;;;;;;4.93;1.30;;;;;;;17.96;67.70;99561.59;15470642;28;19956;-49
2023/08/01 18:38:03;;;;;;;;;;;;;;;18.15;66.98;99563.56;15471481;28;20518;-52
2023/08/01 18:45:36;;;;;;;1.65;1.35;;;;;;;18.00;67.63;99572.66;15463442;28;20325;-54
2023/08/01 18:53:10;;;;;;;2.13;1.38;;;;;;;18.12;67.62;99578.53;15463312;28;20051;-51
2023/08/01 19:00:43;;;;;;;4.72;1.60;;;;;;;18.27;67.21;99589.22;15487598;28;20523;-54
2023/08/01 19:08:17;;;;;;;;;;;;;;;18.50;67.87;99603.09;15486850;28;20455;-53
2023/08/01 19:15:51;;;;;;;4.50;1.83;;;;;;;18.74;66.44;99613.94;15488288;28;19926;-52
2023/08/01 19:23:25;;;;;;;2.42;1.77;;;;;;;18.49;66.97;99617.78;15485926;28;20070;-54
2023/08/01 19:30:58;;;;;;;5.97;2.25;;;;;;;18.07;69.35;99628.28;15484994;28;20049;-55
2023/08/01 19:38:36;;;;;;;4.45;2.10;;;;;;;18.23;68.93;99636.25;15484484;28;20054;-52
2023/08/01 19:46:14;;;;;;;5.05;1.98;;;;;;;17.53;71.06;99642.84;15467574;28;20130;-50
2023/08/01 19:53:48;;;;;;;4.50;1.85;;;;;;;18.17;69.82;99648.28;15491207;28;20154;-55
2023/08/01 20:01:21;;;;;;;4.88;2.30;;;;;;;18.13;68.44;99648.03;15516134;28;20533;-50
2023/08/01 20:08:55;;;;;;;;;;;;;;;18.16;68.72;99660.25;15449203;28;20051;-53
2023/08/01 20:16:28;;;;;;;5.40;2.33;;;;;;;17.96;68.57;99663.97;15478378;28;20028;-51
2023/08/01 20:24:02;;;;;;;;;;;;;;;17.77;67.69;99664.66;15483554;28;20483;-52
2023/08/01 20:31:35;;;;;;;2.65;2.00;;;;;;;17.66;67.89;99667.69;15480357;28;19933;-51
2023/08/01 20:39:10;;;;;;;3.88;2.17;;;;;;;17.38;69.34;99680.09;15482194;28;20490;-50
2023/08/01 20:46:43;;;;;;;5.38;2.00;;;;;;;16.93;69.39;99679.28;15479191;28;20030;-51
2023/08/01 20:54:17;;;;;;;5.60;2.05;;;;;;;16.91;69.71;99681.44;15501100;28;20117;-51
2023/08/01 21:01:51;;;;;;;4.93;2.35;;;;;;;17.02;69.01;99691.97;15500308;28;20042;-49
2023/08/01 21:09:30;;;;;;;3.38;2.20;;;;;;;16.99;68.98;99692.53;15476996;28;20171;-49
2023/08/01 21:17:04;;;;;;;4.45;2.10;;;;;;;17.03;69.27;99698.22;15556412;28;20042;-50
2023/08/01 21:24:38;;;;;;;5.10;2.20;;;;;;;16.75;70.41;99705.09;15549407;28;20061;-50
2023/08/01 21:32:11;;;;;;;4.43;2.15;;;;;;;17.15;68.64;99704.09;15500625;28;20062;-50
2023/08/01 21:39:46;;;;;;;;;;;;;;;16.79;69.48;99714.31;15499673;28;20142;-53
2023/08/01 21:47:19;;;;;;;4.25;2.35;;;;;;;16.84;69.43;99725.13;15499095;28;19922;-52
2023/08/01 21:54:57;;;;;;;5.22;2.22;;;;;;;16.84;68.81;99717.00;15465091;28;20061;-51
2023/08/01 22:02:30;;;;;;;4.40;1.85;;;;;;;17.17;66.81;99717.41;15499584;28;20522;-51
2023/08/01 22:10:26;;;;;;;7.78;2.40;;;;;;;17.07;67.03;99721.78;15486111;28;20054;-51
2023/08/01 22:17:59;;;;;;;4.07;2.30;;;;;;;16.84;68.04;99730.53;15479388;28;20050;-50
2023/08/01 22:25:33;;;;;;;6.63;2.25;;;;;;;16.75;68.38;99729.47;15497305;28;20140;-50
2023/08/01 22:33:07;;;;;;;6.15;2.25;;;;;;;16.54;68.75;99742.22;15479685;28;20050;-53
2023/08/01 22:40:43;;;;;;;4.95;1.98;;;;;;;16.86;67.88;99736.47;15495745;28;20045;-51
2023/08/01 22:48:18;;;;;;;4.85;1.77;;;;;;;16.80;67.42;99741.13;15488508;28;20043;-51
2023/08/01 22:55:52;;;;;;;7.53;2.15;;;;;;;17.05;66.32;99737.50;15545720;28;20054;-53
2023/08/01 23:03:25;;;;;;;6.07;2.17;;;;;;;16.88;67.45;99738.91;15535857;28;20448;-52
2023/08/01 23:11:01;;;;;;;3.92;1.83;;;;;;;17.34;65.43;99743.03;15494678;28;20030;-51
2023/08/01 23:18:40;;;;;;;5.30;1.90;;;;;;;17.47;65.75;99748.97;15494683;28;20047;-54
2023/08/01 23:26:14;;;;;;;;;;;;;;;17.18;66.11;99738.81;15494156;28;20078;-51
2023/08/01 23:33:47;;;;;;;6.47;2.15;;;;;;;17.27;65.93;99739.84;15476138;28;19922;-51
2023/08/01 23:41:25;;;;;;;4.47;2.03;;;;;;;17.02;66.59;99742.66;15493364;28;20073;-53
2023/08/01 23:48:59;;;;;;;5.35;2.40;;;;;;;17.18;66.60;99725.25;15493478;28;20054;-53
2023/08/01 23:56:33;;;;;;;5.63;2.30;;;;;;;16.62;68.59;99722.69;15493848;28;20062;-49
